ESNK

Details ICAO ESNK (KRF)
Name Kramfors Solleftea
Region Sweden
Timezone Europe/Stockholm (UTC+2.0)
Plans Departing 11
Arriving 14
Stats Elevation 34 ft / 10 m (AMSL)
Location 63.048597° 17.768854°
Runways 1
Magnetic Variation 6.732° E
Sunrise 2018-05-24 01:22:27 UTC / 2018-05-24 03:22:27 Local
Sunset 2018-05-24 20:11:56 UTC / 2018-05-24 22:11:56 Local
Advertisement - Login to hide

Runways

ID Width Length Bearing (true) Bearing (mag) Surface Threshold Offset Overrun Length
17 148 ft / 45 m 6,551 ft / 1,997 m 171.54° 164.81° Asphalt 0 ft / 0 m 0 ft / 0 m
35 148 ft / 45 m 6,551 ft / 1,997 m 351.55° 344.82° Asphalt 0 ft / 0 m 0 ft / 0 m

Approach Navaids

Runway Type Ident Frequency Range Bearing (true) Bearing (mag) Slope Elevation
17 Localiser FK 109.30 MHz 18 nm / 33 km 171.56° 164.83° - 34 ft / 10 m (AMSL)
35 Localiser NK 109.70 MHz 18 nm / 33 km 351.53° 344.80° - 34 ft / 10 m (AMSL)
35 Glidescope NK 109.70 MHz 10 nm / 19 km 351.54° 344.81° 3.25° 34 ft / 10 m (AMSL)

Map

Weather


0- 5 10 15 20 25 30 35+ Temperature / ° C

Clouds and Precipitation
Forecast for 2018-05-24 12:00 UTC. Updated an hour ago

Ground ~20,000 ft ~40,000 ft Winds

METAR

ESNK 241220Z AUTO 14015KT 9999 FEW210/// 18/01 Q1028

TAF

Not found

Frequencies

Tower 122.15 MHz AFIS
Warning: Do not use this data for real-world aviation or navigation. No guarantee of current accuracy is given.